createdAt,value
2022-12-31T00:02:03.160Z,98678.50
2022-12-31T00:07:11.478Z,98680.72
2022-12-31T00:09:42.967Z,98683.13
2022-12-31T00:17:31.506Z,98676.16
2022-12-31T00:25:20.192Z,98674.09
2022-12-31T00:27:49.778Z,98669.78
2022-12-31T00:46:24.402Z,98671.06
2022-12-31T00:51:32.633Z,98665.53
2022-12-31T00:54:00.973Z,98663.16
2022-12-31T00:59:10.528Z,98661.78
2022-12-31T01:01:48.480Z,98659.28
2022-12-31T01:04:30.182Z,98656.34
2022-12-31T01:09:43.272Z,98665.13
2022-12-31T01:12:11.271Z,98660.97
2022-12-31T01:14:38.711Z,98666.78
2022-12-31T01:17:15.001Z,98668.47
2022-12-31T01:25:07.341Z,98667.78
2022-12-31T01:27:34.296Z,98674.81
2022-12-31T01:30:01.497Z,98670.69
2022-12-31T01:32:32.150Z,98665.41
2022-12-31T01:35:05.755Z,98666.66
2022-12-31T01:37:33.875Z,98672.47
2022-12-31T01:40:00.939Z,98665.81
2022-12-31T01:42:37.544Z,98663.88
2022-12-31T01:45:10.213Z,98666.50
2022-12-31T01:47:47.936Z,98668.19
2022-12-31T01:50:27.020Z,98661.63
2022-12-31T01:52:56.858Z,98664.00
2022-12-31T01:55:30.820Z,98667.06
2022-12-31T01:58:01.152Z,98659.56
2022-12-31T02:00:28.247Z,98665.25
2022-12-31T02:02:55.911Z,98656.91
2022-12-31T02:05:38.082Z,98661.22
2022-12-31T02:08:09.041Z,98654.28
2022-12-31T02:10:36.311Z,98653.19
2022-12-31T02:13:03.628Z,98658.16
2022-12-31T02:16:07.681Z,98661.50
2022-12-31T02:18:43.523Z,98660.38
2022-12-31T02:21:22.712Z,98651.63
2022-12-31T02:24:11.191Z,98653.28
2022-12-31T02:26:51.134Z,98647.88
2022-12-31T02:29:40.992Z,98654.81
2022-12-31T02:32:13.293Z,98657.31
2022-12-31T02:35:10.221Z,98660.94
2022-12-31T02:37:39.268Z,98663.16
2022-12-31T02:40:11.727Z,98664.56
2022-12-31T02:45:23.351Z,98675.38
2022-12-31T02:48:13.988Z,98667.63
2022-12-31T02:50:56.236Z,98659.97
2022-12-31T02:56:10.220Z,98670.00
2022-12-31T02:59:15.589Z,98666.38
2022-12-31T03:02:03.573Z,98667.88
2022-12-31T03:04:35.780Z,98671.06
2022-12-31T03:07:07.520Z,98671.06
2022-12-31T03:09:37.691Z,98680.66
2022-12-31T03:12:24.265Z,98670.41
2022-12-31T03:15:01.207Z,98670.25
2022-12-31T03:17:30.523Z,98676.50
2022-12-31T03:20:27.088Z,98679.56
2022-12-31T03:22:54.714Z,98677.34
2022-12-31T03:25:38.086Z,98686.75
2022-12-31T03:28:07.895Z,98675.13
2022-12-31T03:30:40.797Z,98679.28
2022-12-31T03:33:08.735Z,98677.91
2022-12-31T03:35:39.307Z,98672.91
2022-12-31T03:38:07.509Z,98674.41
2022-12-31T03:40:40.695Z,98670.41
2022-12-31T03:43:17.973Z,98679.16
2022-12-31T03:45:45.642Z,98680.25
2022-12-31T03:50:57.681Z,98678.72
2022-12-31T03:56:06.425Z,98689.81
2022-12-31T03:58:33.433Z,98694.00
2022-12-31T04:03:43.906Z,98704.28
2022-12-31T04:06:16.354Z,98705.53
2022-12-31T04:08:43.709Z,98695.94
2022-12-31T04:19:16.413Z,98710.22
2022-12-31T04:21:53.055Z,98715.47
2022-12-31T04:32:23.261Z,98723.31
2022-12-31T04:34:50.220Z,98713.75
2022-12-31T04:40:05.852Z,98728.53
2022-12-31T04:42:33.573Z,98724.34
2022-12-31T04:45:00.831Z,98721.88
2022-12-31T04:47:28.342Z,98727.84
2022-12-31T04:49:56.181Z,98729.94
2022-12-31T04:52:23.480Z,98739.50
2022-12-31T04:54:52.272Z,98745.47
2022-12-31T04:57:19.209Z,98747.59
2022-12-31T04:59:46.693Z,98747.59
2022-12-31T05:02:16.293Z,98753.00
2022-12-31T05:04:48.504Z,98753.31
2022-12-31T05:07:15.694Z,98755.50
2022-12-31T05:09:47.244Z,98761.03
2022-12-31T05:12:14.745Z,98764.88
2022-12-31T05:14:42.079Z,98769.06
2022-12-31T05:17:09.404Z,98774.63
2022-12-31T05:19:36.555Z,98778.25
2022-12-31T05:22:23.958Z,98797.66
2022-12-31T05:24:52.477Z,98800.03
2022-12-31T05:27:20.144Z,98795.69
2022-12-31T05:29:47.579Z,98807.47
2022-12-31T05:32:15.125Z,98805.56
2022-12-31T05:34:42.097Z,98830.13
2022-12-31T05:37:09.365Z,98823.19
2022-12-31T05:39:36.304Z,98830.22
2022-12-31T05:42:03.509Z,98834.16
2022-12-31T05:44:30.579Z,98840.97
2022-12-31T05:46:59.778Z,98841.53
2022-12-31T05:49:26.724Z,98850.97
2022-12-31T05:51:53.771Z,98844.31
2022-12-31T05:54:21.137Z,98854.41
2022-12-31T05:56:48.201Z,98862.31
2022-12-31T06:01:58.303Z,98865.06
2022-12-31T06:15:11.388Z,98890.66
2022-12-31T06:17:41.008Z,98901.19
2022-12-31T06:20:13.358Z,98904.84
2022-12-31T06:22:41.264Z,98904.47
2022-12-31T06:25:08.796Z,98925.41
2022-12-31T06:30:18.676Z,98929.72
2022-12-31T06:32:45.696Z,98940.84
2022-12-31T06:35:13.277Z,98946.84
2022-12-31T06:37:40.347Z,98943.47
2022-12-31T06:40:08.263Z,98940.16
2022-12-31T06:45:25.277Z,98946.50
2022-12-31T06:47:53.554Z,98963.28
2022-12-31T06:53:06.541Z,98955.25
2022-12-31T06:55:35.072Z,98966.91
2022-12-31T06:58:04.032Z,98975.88
2022-12-31T07:00:31.238Z,98972.56
2022-12-31T07:03:19.926Z,98977.31
2022-12-31T07:05:57.529Z,98990.09
2022-12-31T07:08:37.357Z,98981.81
2022-12-31T07:11:12.769Z,98997.03
2022-12-31T07:13:42.870Z,98995.00
2022-12-31T07:16:21.360Z,98993.72
2022-12-31T07:18:55.325Z,98997.25
2022-12-31T07:21:33.331Z,99002.75
2022-12-31T07:26:56.408Z,99005.84
2022-12-31T07:35:35.260Z,99021.50
2022-12-31T07:46:40.239Z,99025.81
2022-12-31T07:49:14.429Z,99025.28
2022-12-31T07:51:42.909Z,99035.38
2022-12-31T07:54:13.928Z,99038.31
2022-12-31T07:56:42.487Z,99038.06
2022-12-31T07:59:20.969Z,99050.88
2022-12-31T08:01:56.918Z,99049.66
2022-12-31T08:04:57.020Z,99059.38
2022-12-31T08:07:26.438Z,99044.44
2022-12-31T08:10:05.561Z,99054.47
2022-12-31T08:12:34.982Z,99047.28
2022-12-31T08:15:02.393Z,99063.66
2022-12-31T08:17:30.192Z,99066.56
2022-12-31T08:19:58.617Z,99063.09
2022-12-31T08:22:35.180Z,99062.13
2022-12-31T08:28:14.299Z,99059.78
2022-12-31T08:30:50.407Z,99057.81
2022-12-31T08:33:17.643Z,99065.06
2022-12-31T08:41:37.619Z,99073.13
2022-12-31T08:46:57.745Z,99083.28
2022-12-31T08:52:24.107Z,99085.94
2022-12-31T08:54:53.019Z,99081.22
2022-12-31T08:57:20.697Z,99086.00
2022-12-31T09:05:23.824Z,99082.47
2022-12-31T09:07:59.445Z,99099.00
2022-12-31T09:16:18.303Z,99100.09
2022-12-31T09:21:36.554Z,99119.97
2022-12-31T09:33:00.529Z,99134.66
2022-12-31T09:38:48.403Z,99130.84
2022-12-31T09:44:08.915Z,99137.03
2022-12-31T10:21:23.038Z,99189.22
2022-12-31T10:26:53.512Z,99206.59
2022-12-31T10:29:30.211Z,99202.28
2022-12-31T10:31:57.766Z,99206.75
2022-12-31T10:34:57.602Z,99186.22
2022-12-31T10:43:23.501Z,99198.97
2022-12-31T10:45:59.831Z,99203.41
2022-12-31T10:48:54.686Z,99197.25
2022-12-31T10:51:49.775Z,99196.31
2022-12-31T10:54:52.775Z,99183.81
2022-12-31T10:57:20.972Z,99185.75
2022-12-31T11:00:17.289Z,99182.00
2022-12-31T11:02:51.244Z,99196.50
2022-12-31T11:05:35.124Z,99201.53
2022-12-31T11:08:11.473Z,99210.28
2022-12-31T11:10:53.826Z,99209.31
2022-12-31T11:13:41.728Z,99231.72
2022-12-31T11:16:15.871Z,99230.19
2022-12-31T11:19:02.693Z,99243.53
2022-12-31T11:21:43.102Z,99235.59
2022-12-31T11:24:26.815Z,99236.09
2022-12-31T11:27:02.979Z,99259.84
2022-12-31T11:29:44.040Z,99247.41
2022-12-31T11:32:15.029Z,99251.47
2022-12-31T11:34:47.970Z,99269.00
2022-12-31T11:37:16.041Z,99253.16
2022-12-31T11:39:53.072Z,99259.50
2022-12-31T11:42:30.416Z,99274.38
2022-12-31T11:45:12.780Z,99288.16
2022-12-31T11:48:29.756Z,99284.69
2022-12-31T12:25:22.599Z,99312.88
2022-12-31T12:30:30.257Z,99325.13
2022-12-31T12:33:01.727Z,99326.53
2022-12-31T12:35:30.541Z,99325.72
2022-12-31T12:38:02.144Z,99338.06
2022-12-31T12:40:33.813Z,99329.88
2022-12-31T12:45:51.383Z,99329.19
2022-12-31T12:48:21.982Z,99332.06
2022-12-31T12:50:49.984Z,99332.06
2022-12-31T12:53:36.834Z,99334.56
2022-12-31T12:56:13.409Z,99326.66
2022-12-31T12:58:51.545Z,99328.81
2022-12-31T13:01:37.524Z,99321.94
2022-12-31T13:07:00.673Z,99319.41
2022-12-31T13:09:33.801Z,99324.59
2022-12-31T13:12:56.830Z,99313.53
2022-12-31T13:15:29.800Z,99333.13
2022-12-31T13:18:05.332Z,99352.25
2022-12-31T13:20:41.525Z,99345.03
2022-12-31T13:23:23.181Z,99343.72
2022-12-31T13:26:11.747Z,99336.28
2022-12-31T13:28:43.074Z,99345.41
2022-12-31T13:31:13.098Z,99344.28
2022-12-31T13:33:45.505Z,99337.47
2022-12-31T13:36:18.191Z,99340.94
2022-12-31T13:38:45.489Z,99335.22
2022-12-31T13:41:15.383Z,99334.00
2022-12-31T13:43:50.980Z,99324.16
2022-12-31T13:46:21.108Z,99336.63
2022-12-31T13:48:51.453Z,99335.06
2022-12-31T13:51:23.919Z,99328.34
2022-12-31T13:54:00.167Z,99344.19
2022-12-31T13:56:30.277Z,99340.94
2022-12-31T14:01:53.263Z,99345.72
2022-12-31T14:04:33.601Z,99342.84
2022-12-31T14:07:10.005Z,99337.56
2022-12-31T14:09:38.148Z,99331.22
2022-12-31T14:12:18.177Z,99353.44
2022-12-31T14:15:06.283Z,99357.75
2022-12-31T14:17:41.030Z,99348.91
2022-12-31T14:20:21.419Z,99332.94
2022-12-31T14:23:05.538Z,99332.56
2022-12-31T14:25:39.971Z,99339.00
2022-12-31T14:28:13.484Z,99337.09
2022-12-31T14:30:43.120Z,99339.09
2022-12-31T14:33:25.175Z,99329.66
2022-12-31T14:36:11.262Z,99317.88
2022-12-31T14:38:57.033Z,99316.31
2022-12-31T14:41:45.781Z,99331.47
2022-12-31T14:47:22.737Z,99339.28
2022-12-31T14:50:05.157Z,99342.03
2022-12-31T14:52:34.436Z,99345.75
2022-12-31T14:55:05.025Z,99334.84
2022-12-31T14:58:09.609Z,99328.44
2022-12-31T15:00:40.874Z,99327.25
2022-12-31T15:03:27.749Z,99332.50
2022-12-31T15:06:04.295Z,99329.09
2022-12-31T15:11:35.599Z,99339.41
2022-12-31T15:14:21.815Z,99337.50
2022-12-31T15:17:04.346Z,99347.09
2022-12-31T15:19:50.159Z,99347.13
2022-12-31T15:22:29.397Z,99335.63
2022-12-31T15:24:56.651Z,99336.31
2022-12-31T15:27:29.969Z,99333.06
2022-12-31T15:29:59.302Z,99339.94
2022-12-31T15:32:55.952Z,99337.34
2022-12-31T15:35:32.557Z,99348.41
2022-12-31T15:38:04.001Z,99349.75
2022-12-31T15:40:31.242Z,99340.38
2022-12-31T15:43:18.730Z,99341.22
2022-12-31T15:45:49.305Z,99332.47
2022-12-31T15:48:44.575Z,99331.38
2022-12-31T15:51:18.952Z,99320.81
2022-12-31T15:53:53.602Z,99327.53
2022-12-31T15:59:19.073Z,99328.25
2022-12-31T16:01:47.113Z,99327.22
2022-12-31T16:04:23.151Z,99332.59
2022-12-31T16:06:51.386Z,99327.47
2022-12-31T16:09:24.282Z,99335.72
2022-12-31T16:44:43.014Z,99320.38
2022-12-31T16:47:15.415Z,99318.44
2022-12-31T16:49:44.123Z,99322.78
2022-12-31T16:52:26.586Z,99311.75
2022-12-31T16:54:55.154Z,99300.84
2022-12-31T16:57:27.864Z,99300.22
2022-12-31T16:59:58.979Z,99301.03
2022-12-31T17:02:29.182Z,99297.44
2022-12-31T17:07:46.310Z,99295.19
2022-12-31T17:10:17.315Z,99305.25
2022-12-31T17:13:25.352Z,99305.84
2022-12-31T17:15:43.007Z,99322.97
2022-12-31T17:18:17.491Z,99309.31
2022-12-31T17:20:45.024Z,99314.59
2022-12-31T17:23:23.564Z,99301.88
2022-12-31T17:25:58.463Z,99298.88
2022-12-31T17:31:28.708Z,99294.94
2022-12-31T17:34:05.635Z,99299.69
2022-12-31T17:39:22.060Z,99285.44
2022-12-31T17:44:35.453Z,99276.78
2022-12-31T17:47:08.068Z,99266.91
2022-12-31T17:52:18.055Z,99263.97
2022-12-31T18:00:17.024Z,99274.28
2022-12-31T18:02:48.613Z,99274.28
2022-12-31T18:05:16.976Z,99259.66
2022-12-31T18:10:25.417Z,99255.31
2022-12-31T18:18:25.314Z,99254.47
2022-12-31T18:34:42.116Z,99232.00
2022-12-31T19:24:25.209Z,99178.69
2022-12-31T20:16:14.253Z,99126.97
2022-12-31T20:38:06.180Z,99140.56
2022-12-31T20:40:35.156Z,99131.44
2022-12-31T23:33:18.571Z,98867.47
2022-12-31T23:35:51.308Z,98882.09
2022-12-31T23:46:30.150Z,98862.78
